KNQA/NQA METAR and TAF weather

Enter ICAO airport designator
Station Type Date Time Source
KNQA METAR 2019/04/25 15:50 UTC NOAA

KNQA 251550Z 18010G16KT 10SM OVC020 19/15 A2972


Station Type Date Time Source
KNQA Decoded METAR 2019/04/25 15:50 UTC NOAA

Millington, Millington Municipal Airport, TN, United States (KNQA) 35-21-24N 089-52-13W
Apr 25, 2019 - 11:50 AM EDT / 2019.04.25 1550 UTC
Wind: from the S (180 degrees) at 12 MPH (10 KT) gusting to 18 MPH (16 KT):0
Visibility: 10 mile(s):0
Sky conditions: overcast
Temperature: 66 F (19 C)
Dew Point: 59 F (15 C)
Relative Humidity: 77%
Pressure (altimeter): 29.72 in. Hg (1006 hPa)
ob: KNQA 251550Z 18010G16KT 10SM OVC020 19/15 A2972
cycle: 16

Station Type Date Time Source
KNQA TAF UTC NOAA

Error!

Example: see airport list